Aegean Navigator — SWBI — position and weather

sailwx.info

Track history (hours):
 
Tides and Currents Weather Stations Pressure Air Temp Water Temp Dewpoint Dewpoint Depression Visibility Wind Speed Wind Dir Waves Ship Positions

Aegean Navigator

Last reported at 2016-May-01 01:33 UTC. Time now 2016-May-01 02:22 UTC.
Position N 33°51' E 034°03'.

Length 274 m; draft 9 m.

Type: Ship. MMSI: 240634000.

Date/timePositionNaut miles runAvg speedWind from/ knotsBaromVisibWave heightAir tempDewpointWater temp
2016-May-01 01:33N 33°51' E 034°03'2 1.7
2016-May-01 00:33N 33°52' E 034°05'2 1.6
2016-Apr-30 23:33N 33°52' E 034°06'1 1.3
2016-Apr-30 22:33N 33°52' E 034°08'1 1.4
2016-Apr-30 21:33N 33°52' E 034°10'2 1.6
2016-Apr-30 20:33N 33°52' E 034°12'1 1.2
2016-Apr-30 19:32N 33°52' E 034°13'1 1.3
2016-Apr-30 18:33N 33°52' E 034°15'1 1.3
2016-Apr-30 17:33N 33°52' E 034°16'1 1.0
2016-Apr-30 16:33N 33°53' E 034°17'1 0.7
2016-Apr-30 15:33N 33°53' E 034°18'0 0.4
2016-Apr-30 14:33N 33°53' E 034°18'0 0.3
2016-Apr-30 13:33N 33°54' E 034°18'0 0.3
2016-Apr-30 12:33N 33°54' E 034°18'0 0.1
2016-Apr-30 11:33N 33°54' E 034°18'0 0.2
2016-Apr-30 10:33N 33°53' E 034°18'0 0.3
2016-Apr-30 09:33N 33°53' E 034°18'0 0.5
2016-Apr-30 08:33N 33°53' E 034°18'0 0.5
2016-Apr-30 07:33N 33°52' E 034°18'1 0.5
2016-Apr-30 06:33N 33°52' E 034°18'1 0.6
2016-Apr-30 05:33N 33°51' E 034°18'1 0.7
2016-Apr-30 04:33N 33°51' E 034°19'1 1.0
2016-Apr-30 03:33N 33°50' E 034°20'1 0.6
2016-Apr-30 02:33N 33°50' E 034°21'1 0.5
2016-Apr-30 01:33N 33°50' E 034°21'1 0.5
2016-Apr-30 00:33N 33°50' E 034°22'0 0.4
2016-Apr-29 23:33N 33°51' E 034°22'0 0.3
2016-Apr-29 22:33N 33°51' E 034°23'0 0.3
2016-Apr-29 21:33N 33°51' E 034°23'0 0.3
2016-Apr-29 20:33N 33°51' E 034°23'0 0.2
2016-Apr-29 19:33N 33°51' E 034°24'1 0.5
2016-Apr-29 18:33N 33°52' E 034°24'1 0.7
2016-Apr-29 17:33N 33°52' E 034°24'1 0.8
2016-Apr-29 16:33N 33°53' E 034°24'1 0.8
2016-Apr-29 15:32N 33°54' E 034°24'1 0.8
2016-Apr-29 14:33N 33°55' E 034°24'1 0.8
2016-Apr-29 13:29N 33°56' E 034°24'1 0.8
2016-Apr-29 12:33N 33°56' E 034°24'1 0.8
2016-Apr-29 11:19N 33°57' E 034°23'7 3.2
2016-Apr-29 09:14N 33°52' E 034°28'10 9.8
2016-Apr-29 08:11N 33°43' E 034°35'2 0.6
2016-Apr-29 04:12N 33°44' E 034°32'0 0.6
2016-Apr-29 03:32N 33°45' E 034°32'1 0.6
2016-Apr-29 02:22N 33°45' E 034°32'2 0.7
2016-Apr-28 23:33N 33°47' E 034°31'1 0.8
2016-Apr-28 22:26N 33°48' E 034°31'1 1.0
2016-Apr-28 21:28N 33°49' E 034°30'1 1.2
2016-Apr-28 20:30N 33°50' E 034°30'1 1.2
2016-Apr-28 19:24N 33°51' E 034°29'1 1.3
2016-Apr-28 18:16N 33°52' E 034°29'1 1.3
2016-Apr-28 17:33N 33°53' E 034°28'3 1.3
2016-Apr-28 15:31N 33°55' E 034°26'1 1.3
2016-Apr-28 14:29N 33°56' E 034°25'27 0.6
2016-Apr-26 18:25N 33°50' E 033°53'1 0.4
2016-Apr-26 16:33N 33°49' E 033°53'1 0.5
2016-Apr-26 15:32N 33°49' E 033°53'1 0.8
2016-Apr-26 14:33N 33°48' E 033°54'1 1.2
2016-Apr-26 13:34N 33°48' E 033°55'1 1.2
2016-Apr-26 12:32N 33°47' E 033°56'1 1.4
2016-Apr-26 11:28N 33°46' E 033°57'1010.9
2016-Apr-26 10:32N 33°36' E 033°60'1413.9
2016-Apr-26 09:33N 33°23' E 034°02'1714.0
2016-Apr-26 08:19N 33°05' E 034°05'810.6
2016-Apr-26 07:32N 32°57' E 034°05'1111.0
2016-Apr-26 06:33N 32°47' E 034°01'1110.8
2016-Apr-26 05:33N 32°37' E 033°57'1110.7
2016-Apr-26 04:33N 32°26' E 033°53'1110.5
2016-Apr-26 03:33N 32°16' E 033°49'10 8.2
2016-Apr-26 02:23N 32°07' E 033°53'910.3
2016-Apr-26 01:33N 32°04' E 034°02'1010.4
2016-Apr-26 00:33N 31°59' E 034°13'4 0.1
2016-Apr-24 02:33N 31°57' E 034°17'1211.7
2016-Apr-24 01:33N 32°02' E 034°05'1211.9
2016-Apr-24 00:33N 32°07' E 033°52'10 9.9
2016-Apr-23 23:33N 32°17' E 033°49'1211.7
2016-Apr-23 22:33N 32°28' E 033°53'1211.7
2016-Apr-23 21:33N 32°39' E 033°56'1211.9
2016-Apr-23 20:33N 32°51' E 034°00'1212.0
2016-Apr-23 19:33N 33°02' E 034°05'1211.6
2016-Apr-23 18:33N 33°13' E 034°09'1211.7
2016-Apr-23 17:33N 33°24' E 034°13'1111.4
2016-Apr-23 16:33N 33°35' E 034°16'1111.5
2016-Apr-23 15:33N 33°46' E 034°20'1211.7
2016-Apr-23 14:33N 33°58' E 034°24'1211.6
2016-Apr-23 13:33N 34°09' E 034°28'1111.3
2016-Apr-23 12:33N 34°20' E 034°32'1111.3
2016-Apr-23 11:33N 34°30' E 034°36'1111.4
2016-Apr-23 10:33N 34°41' E 034°40'1212.0
2016-Apr-23 09:33N 34°53' E 034°44'1312.5
2016-Apr-23 08:33N 35°05' E 034°49'1313.0
2016-Apr-23 07:33N 35°17' E 034°54'1313.1
2016-Apr-23 06:33N 35°30' E 034°58'1212.4
2016-Apr-23 05:33N 35°42' E 035°02'1312.5
2016-Apr-23 04:33N 35°54' E 035°06'1312.5
2016-Apr-23 03:33N 36°06' E 035°11'1312.6
2016-Apr-23 02:33N 36°18' E 035°16'1312.7
2016-Apr-23 01:33N 36°26' E 035°28'39 1.0
2016-Apr-21 10:34N 36°07' E 034°46'  
Track history (hours):
 
Tides and Currents Weather Stations Pressure Air Temp Water Temp Dewpoint Dewpoint Depression Visibility Wind Speed Wind Dir Waves Ship Positions

Aegean Navigator

Last reported at 2016-May-01 01:33 UTC. Time now 2016-May-01 02:22 UTC.
Position N 33°51' E 034°03'.

Length 274 m; draft 9 m.

Type: Ship. MMSI: 240634000.

Date/timePositionNaut miles runAvg speedWind from/ knotsBaromVisibWave heightAir tempDewpointWater temp
2016-May-01 01:33N 33°51' E 034°03'2 1.7
2016-May-01 00:33N 33°52' E 034°05'2 1.6
2016-Apr-30 23:33N 33°52' E 034°06'1 1.3
2016-Apr-30 22:33N 33°52' E 034°08'1 1.4
2016-Apr-30 21:33N 33°52' E 034°10'2 1.6
2016-Apr-30 20:33N 33°52' E 034°12'1 1.2
2016-Apr-30 19:32N 33°52' E 034°13'1 1.3
2016-Apr-30 18:33N 33°52' E 034°15'1 1.3
2016-Apr-30 17:33N 33°52' E 034°16'1 1.0
2016-Apr-30 16:33N 33°53' E 034°17'1 0.7
2016-Apr-30 15:33N 33°53' E 034°18'0 0.4
2016-Apr-30 14:33N 33°53' E 034°18'0 0.3
2016-Apr-30 13:33N 33°54' E 034°18'0 0.3
2016-Apr-30 12:33N 33°54' E 034°18'0 0.1
2016-Apr-30 11:33N 33°54' E 034°18'0 0.2
2016-Apr-30 10:33N 33°53' E 034°18'0 0.3
2016-Apr-30 09:33N 33°53' E 034°18'0 0.5
2016-Apr-30 08:33N 33°53' E 034°18'0 0.5
2016-Apr-30 07:33N 33°52' E 034°18'1 0.5
2016-Apr-30 06:33N 33°52' E 034°18'1 0.6
2016-Apr-30 05:33N 33°51' E 034°18'1 0.7
2016-Apr-30 04:33N 33°51' E 034°19'1 1.0
2016-Apr-30 03:33N 33°50' E 034°20'1 0.6
2016-Apr-30 02:33N 33°50' E 034°21'1 0.5
2016-Apr-30 01:33N 33°50' E 034°21'1 0.5
2016-Apr-30 00:33N 33°50' E 034°22'0 0.4
2016-Apr-29 23:33N 33°51' E 034°22'0 0.3
2016-Apr-29 22:33N 33°51' E 034°23'0 0.3
2016-Apr-29 21:33N 33°51' E 034°23'0 0.3
2016-Apr-29 20:33N 33°51' E 034°23'0 0.2
2016-Apr-29 19:33N 33°51' E 034°24'1 0.5
2016-Apr-29 18:33N 33°52' E 034°24'1 0.7
2016-Apr-29 17:33N 33°52' E 034°24'1 0.8
2016-Apr-29 16:33N 33°53' E 034°24'1 0.8
2016-Apr-29 15:32N 33°54' E 034°24'1 0.8
2016-Apr-29 14:33N 33°55' E 034°24'1 0.8
2016-Apr-29 13:29N 33°56' E 034°24'1 0.8
2016-Apr-29 12:33N 33°56' E 034°24'1 0.8
2016-Apr-29 11:19N 33°57' E 034°23'7 3.2
2016-Apr-29 09:14N 33°52' E 034°28'10 9.8
2016-Apr-29 08:11N 33°43' E 034°35'2 0.6
2016-Apr-29 04:12N 33°44' E 034°32'0 0.6
2016-Apr-29 03:32N 33°45' E 034°32'1 0.6
2016-Apr-29 02:22N 33°45' E 034°32'2 0.7
2016-Apr-28 23:33N 33°47' E 034°31'1 0.8
2016-Apr-28 22:26N 33°48' E 034°31'1 1.0
2016-Apr-28 21:28N 33°49' E 034°30'1 1.2
2016-Apr-28 20:30N 33°50' E 034°30'1 1.2
2016-Apr-28 19:24N 33°51' E 034°29'1 1.3
2016-Apr-28 18:16N 33°52' E 034°29'1 1.3
2016-Apr-28 17:33N 33°53' E 034°28'3 1.3
2016-Apr-28 15:31N 33°55' E 034°26'1 1.3
2016-Apr-28 14:29N 33°56' E 034°25'27 0.6
2016-Apr-26 18:25N 33°50' E 033°53'1 0.4
2016-Apr-26 16:33N 33°49' E 033°53'1 0.5
2016-Apr-26 15:32N 33°49' E 033°53'1 0.8
2016-Apr-26 14:33N 33°48' E 033°54'1 1.2
2016-Apr-26 13:34N 33°48' E 033°55'1 1.2
2016-Apr-26 12:32N 33°47' E 033°56'1 1.4
2016-Apr-26 11:28N 33°46' E 033°57'1010.9
2016-Apr-26 10:32N 33°36' E 033°60'1413.9
2016-Apr-26 09:33N 33°23' E 034°02'1714.0
2016-Apr-26 08:19N 33°05' E 034°05'810.6
2016-Apr-26 07:32N 32°57' E 034°05'1111.0
2016-Apr-26 06:33N 32°47' E 034°01'1110.8
2016-Apr-26 05:33N 32°37' E 033°57'1110.7
2016-Apr-26 04:33N 32°26' E 033°53'1110.5
2016-Apr-26 03:33N 32°16' E 033°49'10 8.2
2016-Apr-26 02:23N 32°07' E 033°53'910.3
2016-Apr-26 01:33N 32°04' E 034°02'1010.4
2016-Apr-26 00:33N 31°59' E 034°13'4 0.1
2016-Apr-24 02:33N 31°57' E 034°17'1211.7
2016-Apr-24 01:33N 32°02' E 034°05'1211.9
2016-Apr-24 00:33N 32°07' E 033°52'10 9.9
2016-Apr-23 23:33N 32°17' E 033°49'1211.7
2016-Apr-23 22:33N 32°28' E 033°53'1211.7
2016-Apr-23 21:33N 32°39' E 033°56'1211.9
2016-Apr-23 20:33N 32°51' E 034°00'1212.0
2016-Apr-23 19:33N 33°02' E 034°05'1211.6
2016-Apr-23 18:33N 33°13' E 034°09'1211.7
2016-Apr-23 17:33N 33°24' E 034°13'1111.4
2016-Apr-23 16:33N 33°35' E 034°16'1111.5
2016-Apr-23 15:33N 33°46' E 034°20'1211.7
2016-Apr-23 14:33N 33°58' E 034°24'1211.6
2016-Apr-23 13:33N 34°09' E 034°28'1111.3
2016-Apr-23 12:33N 34°20' E 034°32'1111.3
2016-Apr-23 11:33N 34°30' E 034°36'1111.4
2016-Apr-23 10:33N 34°41' E 034°40'1212.0
2016-Apr-23 09:33N 34°53' E 034°44'1312.5
2016-Apr-23 08:33N 35°05' E 034°49'1313.0
2016-Apr-23 07:33N 35°17' E 034°54'1313.1
2016-Apr-23 06:33N 35°30' E 034°58'1212.4
2016-Apr-23 05:33N 35°42' E 035°02'1312.5
2016-Apr-23 04:33N 35°54' E 035°06'1312.5
2016-Apr-23 03:33N 36°06' E 035°11'1312.6
2016-Apr-23 02:33N 36°18' E 035°16'1312.7
2016-Apr-23 01:33N 36°26' E 035°28'39 1.0
2016-Apr-21 10:34N 36°07' E 034°46'  

Dump ship's entire track history